createdAt,value
2023-06-17T00:00:29.657Z,11.23
2023-06-17T00:03:31.684Z,9.10
2023-06-17T00:06:33.949Z,11.68
2023-06-17T00:09:36.887Z,9.85
2023-06-17T00:12:39.486Z,7.83
2023-06-17T00:15:43.668Z,9.70
2023-06-17T00:18:49.515Z,8.82
2023-06-17T00:21:54.053Z,8.35
2023-06-17T00:24:56.251Z,8.70
2023-06-17T00:27:58.655Z,12.83
2023-06-17T00:31:00.812Z,8.02
2023-06-17T00:34:02.749Z,8.48
2023-06-17T00:37:06.184Z,7.32
2023-06-17T00:40:11.611Z,9.82
2023-06-17T00:43:14.440Z,9.17
2023-06-17T00:46:41.202Z,8.57
2023-06-17T00:49:47.394Z,7.75
2023-06-17T00:52:53.729Z,7.75
2023-06-17T00:55:55.991Z,12.15
2023-06-17T00:59:01.885Z,6.90
2023-06-17T01:02:04.696Z,7.35
2023-06-17T01:05:13.910Z,8.75
2023-06-17T01:08:54.762Z,6.88
2023-06-17T01:11:58.860Z,8.68
2023-06-17T01:15:02.998Z,10.53
2023-06-17T01:18:08.482Z,7.88
2023-06-17T01:21:10.905Z,9.45
2023-06-17T01:24:15.050Z,6.53
2023-06-17T01:27:20.231Z,7.63
2023-06-17T01:30:23.413Z,7.47
2023-06-17T01:33:26.589Z,7.22
2023-06-17T01:36:38.197Z,7.22
2023-06-17T01:39:46.079Z,7.10
2023-06-17T01:42:54.115Z,7.57
2023-06-17T01:45:57.929Z,8.00
2023-06-17T01:49:00.561Z,10.73
2023-06-17T01:52:04.259Z,8.60
2023-06-17T01:55:07.758Z,8.23
2023-06-17T01:58:10.161Z,8.65
2023-06-17T02:01:13.733Z,7.37
2023-06-17T02:04:16.148Z,9.27
2023-06-17T02:07:19.325Z,8.10
2023-06-17T02:10:23.906Z,8.98
2023-06-17T02:13:26.346Z,8.30
2023-06-17T02:16:28.639Z,8.03
2023-06-17T02:19:35.587Z,9.20
2023-06-17T02:22:37.973Z,6.63
2023-06-17T02:25:41.236Z,8.15
2023-06-17T02:28:45.011Z,8.57
2023-06-17T02:31:47.478Z,8.90
2023-06-17T02:34:50.785Z,7.47
2023-06-17T02:37:55.634Z,6.93
2023-06-17T02:40:58.018Z,9.07
2023-06-17T02:44:00.425Z,6.75
2023-06-17T02:47:04.575Z,8.10
2023-06-17T02:50:08.067Z,7.05
2023-06-17T02:53:10.239Z,7.72
2023-06-17T02:56:12.535Z,8.98
2023-06-17T02:59:16.387Z,8.32
2023-06-17T03:02:20.812Z,11.33
2023-06-17T03:05:25.816Z,8.30
2023-06-17T03:08:30.056Z,7.82
2023-06-17T03:11:32.105Z,8.18
2023-06-17T03:14:34.844Z,7.70
2023-06-17T03:17:39.386Z,7.20
2023-06-17T03:20:44.359Z,8.23
2023-06-17T03:23:47.112Z,7.55
2023-06-17T03:26:49.379Z,12.55
2023-06-17T03:29:51.534Z,9.23
2023-06-17T03:32:54.817Z,10.17
2023-06-17T03:35:58.335Z,9.23
2023-06-17T03:39:00.380Z,7.65
2023-06-17T03:42:02.332Z,11.93
2023-06-17T03:45:06.332Z,7.50
2023-06-17T03:48:08.909Z,7.60
2023-06-17T03:51:14.135Z,9.27
2023-06-17T03:54:16.268Z,7.63
2023-06-17T03:57:19.516Z,7.68
2023-06-17T04:00:23.249Z,9.02
2023-06-17T04:03:26.533Z,7.13
2023-06-17T04:06:30.206Z,6.90
2023-06-17T04:09:32.844Z,8.02
2023-06-17T04:12:39.106Z,8.32
2023-06-17T04:15:42.477Z,7.78
2023-06-17T04:18:45.781Z,8.73
2023-06-17T04:21:49.986Z,10.43
2023-06-17T04:24:57.733Z,7.35
2023-06-17T04:28:02.644Z,7.07
2023-06-17T04:31:06.073Z,6.82
2023-06-17T04:34:08.915Z,6.30
2023-06-17T04:37:11.157Z,8.63
2023-06-17T04:40:14.445Z,6.88
2023-06-17T04:43:16.522Z,8.73
2023-06-17T04:46:20.573Z,7.25
2023-06-17T04:49:23.802Z,6.73
2023-06-17T04:52:27.048Z,6.28
2023-06-17T04:55:29.818Z,7.68
2023-06-17T04:58:31.844Z,7.30
2023-06-17T05:01:35.343Z,9.63
2023-06-17T05:04:37.370Z,6.50
2023-06-17T05:07:39.730Z,9.18
2023-06-17T05:10:41.639Z,6.72
2023-06-17T05:13:43.861Z,6.80
2023-06-17T05:16:46.895Z,5.60
2023-06-17T05:19:51.037Z,6.37
2023-06-17T05:22:53.118Z,6.18
2023-06-17T05:25:55.311Z,8.20
2023-06-17T05:28:58.342Z,7.05
2023-06-17T05:32:01.927Z,6.40
2023-06-17T05:35:04.387Z,6.60
2023-06-17T05:38:09.042Z,9.38
2023-06-17T05:41:11.207Z,7.40
2023-06-17T05:44:13.314Z,6.43
2023-06-17T05:47:15.409Z,6.28
2023-06-17T05:50:18.143Z,5.13
2023-06-17T05:53:22.530Z,6.30
2023-06-17T05:56:24.729Z,6.10
2023-06-17T05:59:29.963Z,6.75
2023-06-17T06:02:32.001Z,7.07
2023-06-17T06:05:34.013Z,7.53
2023-06-17T06:08:36.530Z,5.75
2023-06-17T06:11:38.627Z,5.75
2023-06-17T06:14:41.504Z,6.53
2023-06-17T06:17:45.608Z,6.53
2023-06-17T06:20:50.261Z,10.47
2023-06-17T06:23:53.934Z,7.57
2023-06-17T06:26:58.717Z,6.53
2023-06-17T06:30:01.403Z,5.78
2023-06-17T06:33:05.116Z,6.32
2023-06-17T06:36:11.547Z,6.73
2023-06-17T06:39:15.259Z,7.60
2023-06-17T06:42:17.892Z,5.82
2023-06-17T06:45:21.364Z,8.18
2023-06-17T06:48:29.594Z,5.90
2023-06-17T06:51:32.451Z,10.40
2023-06-17T06:54:34.734Z,6.30
2023-06-17T06:57:37.274Z,4.90
2023-06-17T07:00:40.837Z,6.68
2023-06-17T07:03:45.552Z,6.15
2023-06-17T07:06:47.974Z,6.43
2023-06-17T07:09:51.242Z,6.47
2023-06-17T07:12:53.571Z,6.35
2023-06-17T07:15:55.642Z,8.13
2023-06-17T07:18:57.862Z,8.00
2023-06-17T07:22:00.171Z,7.57
2023-06-17T07:25:02.638Z,6.93
2023-06-17T07:28:05.046Z,6.50
2023-06-17T07:31:07.921Z,6.18
2023-06-17T07:34:10.071Z,6.05
2023-06-17T07:37:12.057Z,5.70
2023-06-17T07:40:14.833Z,5.18
2023-06-17T07:43:17.227Z,6.20
2023-06-17T07:46:19.780Z,5.50
2023-06-17T07:49:22.042Z,6.35
2023-06-17T07:52:25.177Z,6.23
2023-06-17T07:55:27.905Z,4.97
2023-06-17T07:58:29.866Z,4.95
2023-06-17T08:01:33.699Z,5.18
2023-06-17T08:04:36.039Z,6.63
2023-06-17T08:07:38.147Z,5.03
2023-06-17T08:10:40.354Z,5.15
2023-06-17T08:13:42.294Z,5.80
2023-06-17T08:16:48.222Z,5.20
2023-06-17T08:19:50.303Z,8.80
2023-06-17T08:22:52.647Z,4.27
2023-06-17T08:25:54.813Z,6.20
2023-06-17T08:28:56.858Z,6.13
2023-06-17T08:31:59.177Z,7.43
2023-06-17T08:35:06.679Z,4.47
2023-06-17T08:38:08.519Z,4.57
2023-06-17T08:41:10.750Z,6.07
2023-06-17T08:44:14.945Z,4.47
2023-06-17T08:47:17.955Z,5.82
2023-06-17T08:50:20.572Z,5.00
2023-06-17T08:53:24.885Z,7.83
2023-06-17T08:56:26.840Z,7.28
2023-06-17T08:59:50.291Z,5.40
2023-06-17T09:02:56.027Z,6.57
2023-06-17T09:05:59.075Z,5.40
2023-06-17T09:09:01.922Z,6.65
2023-06-17T09:12:09.848Z,4.93
2023-06-17T09:15:21.784Z,5.20
2023-06-17T09:18:24.349Z,6.00
2023-06-17T09:21:28.347Z,5.55
2023-06-17T09:24:32.256Z,5.70
2023-06-17T09:27:35.211Z,7.40
2023-06-17T09:30:38.603Z,5.30
2023-06-17T09:33:44.969Z,5.83
2023-06-17T09:36:53.468Z,5.43
2023-06-17T09:39:56.120Z,7.57
2023-06-17T09:43:16.327Z,4.72
2023-06-17T09:46:31.163Z,6.00
2023-06-17T09:49:36.256Z,5.43
2023-06-17T09:52:39.537Z,7.28
2023-06-17T09:55:44.841Z,6.00
2023-06-17T09:58:48.818Z,5.55
2023-06-17T10:01:52.026Z,6.18
2023-06-17T10:04:55.194Z,5.97
2023-06-17T10:07:59.086Z,5.43
2023-06-17T10:11:02.251Z,5.43
2023-06-17T10:14:09.256Z,5.57
2023-06-17T10:17:12.809Z,5.03
2023-06-17T10:20:16.905Z,5.40
2023-06-17T10:23:23.489Z,5.03
2023-06-17T10:26:25.825Z,4.53
2023-06-17T10:29:28.815Z,6.47
2023-06-17T10:32:31.605Z,5.97
2023-06-17T10:35:40.982Z,4.03
2023-06-17T10:38:53.359Z,5.63
2023-06-17T10:42:03.974Z,4.97
2023-06-17T10:45:14.043Z,4.68
2023-06-17T10:48:25.196Z,5.40
2023-06-17T10:54:36.467Z,5.57
2023-06-17T10:57:38.726Z,5.00
2023-06-17T11:00:40.913Z,8.90
2023-06-17T11:03:43.255Z,4.28
2023-06-17T11:06:49.286Z,4.10
2023-06-17T11:09:54.578Z,4.53
2023-06-17T11:12:57.179Z,5.80
2023-06-17T11:16:03.433Z,4.97
2023-06-17T11:19:10.798Z,4.45
2023-06-17T11:22:14.490Z,5.17
2023-06-17T11:25:20.903Z,4.95
2023-06-17T11:28:28.937Z,4.07
2023-06-17T11:31:37.394Z,6.95
2023-06-17T11:34:43.152Z,6.43
2023-06-17T11:37:48.196Z,4.97
2023-06-17T11:40:56.907Z,5.63
2023-06-17T11:43:59.544Z,5.07
2023-06-17T11:47:10.422Z,3.58
2023-06-17T11:50:13.269Z,6.00
2023-06-17T11:53:15.730Z,4.30
2023-06-17T11:56:21.631Z,3.78
2023-06-17T11:59:24.571Z,4.82
2023-06-17T12:02:35.393Z,6.63
2023-06-17T12:05:39.697Z,4.30
2023-06-17T12:08:44.202Z,5.17
2023-06-17T12:11:47.231Z,3.67
2023-06-17T12:14:50.430Z,4.10
2023-06-17T12:17:52.800Z,4.90
2023-06-17T12:20:56.502Z,4.20
2023-06-17T12:23:58.864Z,4.50
2023-06-17T12:27:01.811Z,5.38
2023-06-17T12:30:06.047Z,4.40
2023-06-17T12:33:08.509Z,4.40
2023-06-17T12:36:11.435Z,3.38
2023-06-17T12:39:13.824Z,3.87
2023-06-17T12:42:18.507Z,3.67
2023-06-17T12:45:22.336Z,3.88
2023-06-17T12:48:26.495Z,6.30
2023-06-17T12:51:29.684Z,3.72
2023-06-17T12:54:32.673Z,2.97
2023-06-17T12:57:35.373Z,3.80
2023-06-17T13:00:38.495Z,3.28
2023-06-17T13:03:41.592Z,2.85
2023-06-17T13:06:54.456Z,3.20
2023-06-17T13:09:59.087Z,4.83
2023-06-17T13:13:02.038Z,2.78
2023-06-17T13:16:05.628Z,3.03
2023-06-17T13:19:09.723Z,3.03
2023-06-17T13:22:15.499Z,3.53
2023-06-17T13:25:23.056Z,2.80
2023-06-17T13:28:28.278Z,2.63
2023-06-17T13:31:31.158Z,3.33
2023-06-17T13:34:34.210Z,3.83
2023-06-17T13:37:37.423Z,2.25
2023-06-17T13:40:40.150Z,3.50
2023-06-17T13:43:48.441Z,2.88
2023-06-17T13:46:51.212Z,2.75
2023-06-17T13:49:53.991Z,2.53
2023-06-17T13:52:56.494Z,3.85
2023-06-17T13:56:02.401Z,2.60
2023-06-17T13:59:04.540Z,3.42
2023-06-17T14:02:19.342Z,2.80
2023-06-17T14:05:22.554Z,3.28
2023-06-17T14:08:25.689Z,4.55
2023-06-17T14:11:31.506Z,4.20
2023-06-17T14:14:34.041Z,3.33
2023-06-17T14:17:36.886Z,3.17
2023-06-17T14:20:43.896Z,2.88
2023-06-17T14:23:54.619Z,3.33
2023-06-17T14:27:15.705Z,5.60
2023-06-17T14:30:18.180Z,2.67
2023-06-17T14:33:21.965Z,3.30
2023-06-17T14:36:24.593Z,2.53
2023-06-17T14:39:27.181Z,2.88
2023-06-17T14:42:32.807Z,2.50
2023-06-17T14:45:35.600Z,3.92
2023-06-17T14:48:38.664Z,3.75
2023-06-17T14:51:41.849Z,3.47
2023-06-17T14:54:44.824Z,3.90
2023-06-17T14:57:47.862Z,2.87
2023-06-17T15:00:53.562Z,3.10
2023-06-17T15:04:00.104Z,3.72
2023-06-17T15:07:06.289Z,3.28
2023-06-17T15:10:09.638Z,3.35
2023-06-17T15:13:12.572Z,2.53
2023-06-17T15:16:16.786Z,3.33
2023-06-17T15:19:19.610Z,2.70
2023-06-17T15:22:25.696Z,4.10
2023-06-17T15:25:28.560Z,3.42
2023-06-17T15:28:31.144Z,2.27
2023-06-17T15:31:34.680Z,2.97
2023-06-17T15:34:37.304Z,2.30
2023-06-17T15:37:39.836Z,4.00
2023-06-17T15:40:42.268Z,3.33
2023-06-17T15:43:44.734Z,2.40
2023-06-17T15:46:47.693Z,2.05
2023-06-17T15:49:50.890Z,2.30
2023-06-17T15:52:53.541Z,2.53
2023-06-17T15:55:56.621Z,2.28
2023-06-17T15:59:01.633Z,2.83
2023-06-17T16:02:04.377Z,4.55
2023-06-17T16:05:07.188Z,3.13
2023-06-17T16:08:09.326Z,2.90
2023-06-17T16:11:11.895Z,2.40
2023-06-17T16:14:14.043Z,3.47
2023-06-17T16:17:16.466Z,3.08
2023-06-17T16:20:19.188Z,2.97
2023-06-17T16:23:22.056Z,2.22
2023-06-17T16:26:25.337Z,2.33
2023-06-17T16:29:33.994Z,3.43
2023-06-17T16:32:36.330Z,4.20
2023-06-17T16:35:42.176Z,2.72
2023-06-17T16:38:44.356Z,2.42
2023-06-17T16:41:49.994Z,2.53
2023-06-17T16:44:52.361Z,3.53
2023-06-17T16:47:54.706Z,3.88
2023-06-17T16:50:56.869Z,2.40
2023-06-17T16:54:01.799Z,4.05
2023-06-17T16:57:06.931Z,3.25
2023-06-17T17:00:09.869Z,4.00
2023-06-17T17:03:12.421Z,4.60
2023-06-17T17:06:14.684Z,2.75
2023-06-17T17:09:16.783Z,3.03
2023-06-17T17:12:18.931Z,3.35
2023-06-17T17:15:22.774Z,3.43
2023-06-17T17:18:28.819Z,3.78
2023-06-17T17:21:31.042Z,4.30
2023-06-17T17:24:33.336Z,3.50
2023-06-17T17:27:35.461Z,3.15
2023-06-17T17:30:38.155Z,6.90
2023-06-17T17:33:40.411Z,3.20
2023-06-17T17:36:42.964Z,4.47
2023-06-17T17:39:46.876Z,3.25
2023-06-17T17:42:53.745Z,3.78
2023-06-17T17:45:56.571Z,3.00
2023-06-17T17:48:59.542Z,3.42
2023-06-17T17:52:02.949Z,6.03
2023-06-17T17:55:05.822Z,5.10
2023-06-17T17:58:08.515Z,9.57
2023-06-17T18:01:10.952Z,4.20
2023-06-17T18:04:16.998Z,3.90
2023-06-17T18:07:22.685Z,3.60
2023-06-17T18:10:25.288Z,4.22
2023-06-17T18:13:28.554Z,5.03
2023-06-17T18:16:31.685Z,3.30
2023-06-17T18:19:34.116Z,4.55
2023-06-17T18:22:38.307Z,4.05
2023-06-17T18:25:40.983Z,3.45
2023-06-17T18:28:43.645Z,6.07
2023-06-17T18:31:46.404Z,8.60
2023-06-17T18:34:49.677Z,3.40
2023-06-17T18:37:52.145Z,4.35
2023-06-17T18:40:54.530Z,5.05
2023-06-17T18:43:56.960Z,4.72
2023-06-17T18:47:01.351Z,5.43
2023-06-17T18:50:04.288Z,4.05
2023-06-17T18:53:06.699Z,4.00
2023-06-17T18:56:09.264Z,5.53
2023-06-17T18:59:12.130Z,5.15
2023-06-17T19:02:14.446Z,3.87
2023-06-17T19:05:16.952Z,5.30
2023-06-17T19:08:19.614Z,4.75
2023-06-17T19:11:24.856Z,4.85
2023-06-17T19:14:27.929Z,4.40
2023-06-17T19:17:30.513Z,5.73
2023-06-17T19:20:33.278Z,4.00
2023-06-17T19:23:35.708Z,11.77
2023-06-17T19:26:38.383Z,4.28
2023-06-17T19:29:41.050Z,5.82
2023-06-17T19:32:43.659Z,4.83
2023-06-17T19:35:46.886Z,6.28
2023-06-17T19:38:49.843Z,7.55
2023-06-17T19:41:52.821Z,5.05
2023-06-17T19:44:58.256Z,5.35
2023-06-17T19:48:05.514Z,4.63
2023-06-17T19:51:08.418Z,5.72
2023-06-17T19:54:10.759Z,7.10
2023-06-17T19:57:13.315Z,6.82
2023-06-17T20:00:16.326Z,5.40
2023-06-17T20:03:18.844Z,6.37
2023-06-17T20:06:21.956Z,5.45
2023-06-17T20:09:25.223Z,5.15
2023-06-17T20:12:27.480Z,6.18
2023-06-17T20:15:31.028Z,4.88
2023-06-17T20:18:33.111Z,5.13
2023-06-17T20:21:35.446Z,5.03
2023-06-17T20:24:40.383Z,5.65
2023-06-17T20:27:44.993Z,8.20
2023-06-17T20:30:47.263Z,5.38
2023-06-17T20:33:50.139Z,6.17
2023-06-17T20:36:53.928Z,5.85
2023-06-17T20:39:57.272Z,4.30
2023-06-17T20:42:59.468Z,6.72
2023-06-17T20:46:03.016Z,5.53
2023-06-17T20:49:05.217Z,5.37
2023-06-17T20:52:08.034Z,5.82
2023-06-17T20:55:10.695Z,6.15
2023-06-17T20:58:13.249Z,8.10
2023-06-17T21:01:18.560Z,5.57
2023-06-17T21:04:23.808Z,6.00
2023-06-17T21:07:26.300Z,5.97
2023-06-17T21:10:30.156Z,8.60
2023-06-17T21:13:32.520Z,6.25
2023-06-17T21:16:35.622Z,6.40
2023-06-17T21:19:38.106Z,8.10
2023-06-17T21:22:40.353Z,5.75
2023-06-17T21:25:46.460Z,4.70
2023-06-17T21:28:48.893Z,5.95
2023-06-17T21:31:51.283Z,6.45
2023-06-17T21:34:53.646Z,5.53
2023-06-17T21:37:56.419Z,4.28
2023-06-17T21:40:58.968Z,4.93
2023-06-17T21:44:01.348Z,6.63
2023-06-17T21:47:03.816Z,8.95
2023-06-17T21:50:06.499Z,5.17
2023-06-17T21:53:08.557Z,5.43
2023-06-17T21:56:11.939Z,5.00
2023-06-17T21:59:15.624Z,4.70
2023-06-17T22:02:17.714Z,5.28
2023-06-17T22:05:19.698Z,5.60
2023-06-17T22:08:27.527Z,6.90
2023-06-17T22:11:36.360Z,6.05
2023-06-17T22:14:38.664Z,6.63
2023-06-17T22:17:41.226Z,5.18
2023-06-17T22:20:43.219Z,4.17
2023-06-17T22:23:45.478Z,4.65
2023-06-17T22:26:47.494Z,4.47
2023-06-17T22:29:49.745Z,4.25
2023-06-17T22:32:52.141Z,6.38
2023-06-17T22:35:54.107Z,14.03
2023-06-17T22:38:56.317Z,16.85
2023-06-17T22:41:58.410Z,7.32
2023-06-17T22:45:00.602Z,6.18
2023-06-17T22:48:03.944Z,6.60
2023-06-17T22:51:05.959Z,6.10
2023-06-17T22:54:08.148Z,6.35
2023-06-17T22:57:13.168Z,5.13
2023-06-17T23:00:15.675Z,9.63
2023-06-17T23:03:17.827Z,5.00
2023-06-17T23:06:20.028Z,6.37
2023-06-17T23:09:22.496Z,6.70
2023-06-17T23:12:24.901Z,5.63
2023-06-17T23:15:27.156Z,6.00
2023-06-17T23:18:29.530Z,4.28
2023-06-17T23:21:34.143Z,6.93
2023-06-17T23:24:36.986Z,5.05
2023-06-17T23:27:39.154Z,4.60
2023-06-17T23:30:41.357Z,5.20
2023-06-17T23:33:44.221Z,5.47
2023-06-17T23:36:46.532Z,5.00
2023-06-17T23:39:49.049Z,4.75
2023-06-17T23:42:51.771Z,5.70
2023-06-17T23:45:56.162Z,5.88
2023-06-17T23:48:58.517Z,6.22
2023-06-17T23:52:02.956Z,4.40
2023-06-17T23:55:05.445Z,5.00
2023-06-17T23:58:07.407Z,4.22
